KFSO

Franklin County State Airport

Highgate, Vermont, USA
METAR KFSO 140435Z AUTO 27005KT 10SM CLR M07/M12 A3010 RMK AO2 T10661121
Observed Flight Rules
Nov-14 @ 04:35 UTC (13 minutes ago) Visual Flight Rules
Wind Visibility Clouds
270° at 5 knots 10 miles
  • Clear skies
Temperatures Readings
Current -7°C / 19°F
Dewpoint -12°C / 10°F
Humidity 68%
Altimeter 30.1" Hg
Pressure 1019 hPa
Elevation 70
METAR KFSO 140435Z AUTO 27005KT 10SM CLR M07/M12 A3010 RMK AO2 T10661121
Observed Flight Rules
Nov-14 @ 04:35 UTC
(13 minutes ago)
VFR
Wind Visibility
270° at 5 knots 10 miles
Clouds
  • Clear skies
Temperature Dewpoint
-7°C / 19°F -12°C / 10°F
Humidity Altimeter Pressure
68% 30.1" Hg 1019 hPa